sensor_id;sensor_type;location;lat;lon;timestamp;pressure;altitude;pressure_sealevel;temperature;humidity
28683;BME280;15862;43.062;25.626;2023-02-18T00:00:07;100745.41;;;-0.31;100.00
28683;BME280;15862;43.062;25.626;2023-02-18T00:02:33;100746.28;;;-0.32;100.00
28683;BME280;15862;43.062;25.626;2023-02-18T00:04:58;100737.69;;;-0.25;100.00
28683;BME280;15862;43.062;25.626;2023-02-18T00:07:24;100737.69;;;-0.25;100.00
28683;BME280;15862;43.062;25.626;2023-02-18T00:09:49;100731.91;;;-0.33;100.00
28683;BME280;15862;43.062;25.626;2023-02-18T00:12:15;100732.88;;;-0.40;100.00
28683;BME280;15862;43.062;25.626;2023-02-18T00:14:40;100721.13;;;-0.44;100.00
28683;BME280;15862;43.062;25.626;2023-02-18T00:17:06;100727.84;;;-0.43;100.00
28683;BME280;15862;43.062;25.626;2023-02-18T00:19:31;100718.53;;;-0.42;100.00
28683;BME280;15862;43.062;25.626;2023-02-18T00:21:56;100721.13;;;-0.44;100.00
28683;BME280;15862;43.062;25.626;2023-02-18T00:24:22;100716.13;;;-0.50;100.00
28683;BME280;15862;43.062;25.626;2023-02-18T00:26:50;100714.50;;;-0.54;100.00
28683;BME280;15862;43.062;25.626;2023-02-18T00:29:16;100711.88;;;-0.48;100.00
28683;BME280;15862;43.062;25.626;2023-02-18T00:31:42;100713.66;;;-0.53;100.00
28683;BME280;15862;43.062;25.626;2023-02-18T00:34:10;100714.53;;;-0.55;100.00
28683;BME280;15862;43.062;25.626;2023-02-18T00:36:36;100700.16;;;-0.55;100.00
28683;BME280;15862;43.062;25.626;2023-02-18T00:39:04;100699.41;;;-0.61;100.00
28683;BME280;15862;43.062;25.626;2023-02-18T00:41:30;100696.03;;;-0.62;100.00
28683;BME280;15862;43.062;25.626;2023-02-18T00:43:56;100697.66;;;-0.58;100.00
28683;BME280;15862;43.062;25.626;2023-02-18T00:46:23;100684.97;;;-0.56;100.00
28683;BME280;15862;43.062;25.626;2023-02-18T00:48:48;100693.47;;;-0.59;100.00
28683;BME280;15862;43.062;25.626;2023-02-18T00:51:14;100692.41;;;-0.47;100.00
28683;BME280;15862;43.062;25.626;2023-02-18T00:53:40;100683.91;;;-0.45;100.00
28683;BME280;15862;43.062;25.626;2023-02-18T00:56:06;100693.03;;;-0.35;100.00
28683;BME280;15862;43.062;25.626;2023-02-18T00:58:32;100700.78;;;-0.42;100.00
28683;BME280;15862;43.062;25.626;2023-02-18T01:00:57;100683.13;;;-0.48;100.00
28683;BME280;15862;43.062;25.626;2023-02-18T01:03:23;100679.78;;;-0.50;100.00
28683;BME280;15862;43.062;25.626;2023-02-18T01:05:49;100679.03;;;-0.57;100.00
28683;BME280;15862;43.062;25.626;2023-02-18T01:08:16;100665.56;;;-0.59;100.00
28683;BME280;15862;43.062;25.626;2023-02-18T01:10:44;100662.13;;;-0.58;100.00
28683;BME280;15862;43.062;25.626;2023-02-18T01:13:11;100645.41;;;-0.68;100.00
28683;BME280;15862;43.062;25.626;2023-02-18T01:15:38;100657.84;;;-0.53;100.00
28683;BME280;15862;43.062;25.626;2023-02-18T01:18:04;100650.28;;;-0.56;100.00
28683;BME280;15862;43.062;25.626;2023-02-18T01:20:31;100651.09;;;-0.54;100.00
28683;BME280;15862;43.062;25.626;2023-02-18T01:22:57;100647.75;;;-0.56;100.00
28683;BME280;15862;43.062;25.626;2023-02-18T01:25:22;100647.81;;;-0.60;100.00
28683;BME280;15862;43.062;25.626;2023-02-18T01:27:48;100653.66;;;-0.57;100.00
28683;BME280;15862;43.062;25.626;2023-02-18T01:30:15;100647.00;;;-0.61;100.00
28683;BME280;15862;43.062;25.626;2023-02-18T01:32:41;100654.56;;;-0.59;100.00
28683;BME280;15862;43.062;25.626;2023-02-18T01:35:07;100648.72;;;-0.63;100.00
28683;BME280;15862;43.062;25.626;2023-02-18T01:37:32;100647.88;;;-0.63;100.00
28683;BME280;15862;43.062;25.626;2023-02-18T01:40:05;100646.31;;;-0.70;100.00
28683;BME280;15862;43.062;25.626;2023-02-18T01:42:31;100637.03;;;-0.71;100.00
28683;BME280;15862;43.062;25.626;2023-02-18T01:50:32;100613.56;;;-0.83;100.00
28683;BME280;15862;43.062;25.626;2023-02-18T01:53:00;100630.13;;;-0.65;100.00
28683;BME280;15862;43.062;25.626;2023-02-18T01:55:26;100631.00;;;-0.64;100.00
28683;BME280;15862;43.062;25.626;2023-02-18T01:57:52;100640.28;;;-0.65;100.00
28683;BME280;15862;43.062;25.626;2023-02-18T02:00:19;100625.25;;;-0.74;100.00
28683;BME280;15862;43.062;25.626;2023-02-18T02:02:50;100632.88;;;-0.77;100.00
28683;BME280;15862;43.062;25.626;2023-02-18T02:05:16;100638.78;;;-0.75;100.00
28683;BME280;15862;43.062;25.626;2023-02-18T02:07:43;100646.44;;;-0.77;100.00
28683;BME280;15862;43.062;25.626;2023-02-18T02:10:11;100614.50;;;-0.89;100.00
28683;BME280;15862;43.062;25.626;2023-02-18T02:12:50;100642.06;;;-0.70;100.00
28683;BME280;15862;43.062;25.626;2023-02-18T02:23:14;100639.59;;;-0.74;100.00
28683;BME280;15862;43.062;25.626;2023-02-18T02:39:38;100627.53;;;-0.60;100.00
28683;BME280;15862;43.062;25.626;2023-02-18T02:51:33;100608.34;;;-0.76;100.00
28683;BME280;15862;43.062;25.626;2023-02-18T02:54:20;100626.00;;;-0.69;100.00
28683;BME280;15862;43.062;25.626;2023-02-18T02:56:46;100627.63;;;-0.66;100.00
28683;BME280;15862;43.062;25.626;2023-02-18T02:59:20;100630.13;;;-0.65;100.00
28683;BME280;15862;43.062;25.626;2023-02-18T03:12:36;100629.34;;;-0.68;100.00
28683;BME280;15862;43.062;25.626;2023-02-18T03:15:15;100629.38;;;-0.70;100.00
28683;BME280;15862;43.062;25.626;2023-02-18T03:17:50;100617.56;;;-0.71;100.00
28683;BME280;15862;43.062;25.626;2023-02-18T03:20:44;100615.81;;;-0.67;100.00
28683;BME280;15862;43.062;25.626;2023-02-18T03:23:15;100623.47;;;-0.69;100.00
28683;BME280;15862;43.062;25.626;2023-02-18T03:25:43;100620.00;;;-0.63;100.00
28683;BME280;15862;43.062;25.626;2023-02-18T03:28:16;100613.16;;;-0.60;100.00
28683;BME280;15862;43.062;25.626;2023-02-18T03:30:46;100619.81;;;-0.53;100.00
28683;BME280;15862;43.062;25.626;2023-02-18T03:33:15;100603.81;;;-0.56;100.00
28683;BME280;15862;43.062;25.626;2023-02-18T03:35:43;100607.91;;;-0.51;100.00
28683;BME280;15862;43.062;25.626;2023-02-18T03:38:15;100626.44;;;-0.46;100.00
28683;BME280;15862;43.062;25.626;2023-02-18T03:40:43;100636.44;;;-0.37;100.00
28683;BME280;15862;43.062;25.626;2023-02-18T03:43:08;100621.38;;;-0.47;100.00
28683;BME280;15862;43.062;25.626;2023-02-18T03:45:34;100632.13;;;-0.35;100.00
28683;BME280;15862;43.062;25.626;2023-02-18T03:47:59;100631.16;;;-0.28;100.00
28683;BME280;15862;43.062;25.626;2023-02-18T03:50:25;100632.66;;;-0.18;100.00
28683;BME280;15862;43.062;25.626;2023-02-18T03:52:50;100622.28;;;-0.06;100.00
28683;BME280;15862;43.062;25.626;2023-02-18T03:55:15;100623.72;;;0.07;100.00
28683;BME280;15862;43.062;25.626;2023-02-18T03:57:41;100625.16;;;0.20;100.00
28683;BME280;15862;43.062;25.626;2023-02-18T04:00:08;100605.75;;;0.17;100.00
28683;BME280;15862;43.062;25.626;2023-02-18T04:02:34;100613.13;;;0.28;100.00
28683;BME280;15862;43.062;25.626;2023-02-18T04:05:00;100625.88;;;0.25;100.00
28683;BME280;15862;43.062;25.626;2023-02-18T04:07:25;100613.22;;;0.22;100.00
28683;BME280;15862;43.062;25.626;2023-02-18T04:09:51;100580.44;;;0.11;100.00
28683;BME280;15862;43.062;25.626;2023-02-18T04:12:16;100587.91;;;0.19;100.00
28683;BME280;15862;43.062;25.626;2023-02-18T04:14:42;100581.97;;;0.20;100.00
28683;BME280;15862;43.062;25.626;2023-02-18T04:17:07;100583.72;;;0.18;100.00
28683;BME280;15862;43.062;25.626;2023-02-18T04:19:34;100583.75;;;0.16;100.00
28683;BME280;15862;43.062;25.626;2023-02-18T04:22:00;100590.59;;;0.13;100.00
28683;BME280;15862;43.062;25.626;2023-02-18T04:24:25;100589.84;;;0.08;100.00
28683;BME280;15862;43.062;25.626;2023-02-18T04:26:51;100585.69;;;0.04;100.00
28683;BME280;15862;43.062;25.626;2023-02-18T04:29:16;100592.41;;;0.06;100.00
28683;BME280;15862;43.062;25.626;2023-02-18T04:31:41;100592.56;;;-0.01;100.00
28683;BME280;15862;43.062;25.626;2023-02-18T04:34:07;100585.06;;;-0.07;100.00
28683;BME280;15862;43.062;25.626;2023-02-18T04:36:32;100580.09;;;-0.11;100.00
28683;BME280;15862;43.062;25.626;2023-02-18T04:38:58;100582.59;;;-0.10;100.00
28683;BME280;15862;43.062;25.626;2023-02-18T04:41:24;100575.84;;;-0.11;100.00
28683;BME280;15862;43.062;25.626;2023-02-18T04:43:49;100575.84;;;-0.11;100.00
28683;BME280;15862;43.062;25.626;2023-02-18T04:46:15;100570.81;;;-0.14;100.00
28683;BME280;15862;43.062;25.626;2023-02-18T04:48:40;100558.13;;;-0.14;100.00
28683;BME280;15862;43.062;25.626;2023-02-18T04:51:05;100556.50;;;-0.15;100.00
28683;BME280;15862;43.062;25.626;2023-02-18T04:53:32;100554.81;;;-0.16;100.00
28683;BME280;15862;43.062;25.626;2023-02-18T04:55:57;100560.75;;;-0.17;100.00
28683;BME280;15862;43.062;25.626;2023-02-18T04:58:23;100558.13;;;-0.12;100.00
28683;BME280;15862;43.062;25.626;2023-02-18T05:00:49;100557.22;;;-0.10;100.00
28683;BME280;15862;43.062;25.626;2023-02-18T05:03:14;100566.50;;;-0.09;100.00
28683;BME280;15862;43.062;25.626;2023-02-18T05:05:40;100554.56;;;-0.04;100.00
28683;BME280;15862;43.062;25.626;2023-02-18T05:08:07;100571.31;;;0.03;100.00
28683;BME280;15862;43.062;25.626;2023-02-18T05:10:32;100561.97;;;0.05;100.00
28683;BME280;15862;43.062;25.626;2023-02-18T05:12:58;100577.25;;;0.03;100.00
28683;BME280;15862;43.062;25.626;2023-02-18T05:15:24;100571.28;;;0.06;100.00
28683;BME280;15862;43.062;25.626;2023-02-18T05:17:50;100566.97;;;0.09;100.00
28683;BME280;15862;43.062;25.626;2023-02-18T05:20:15;100572.78;;;0.14;100.00
28683;BME280;15862;43.062;25.626;2023-02-18T05:22:41;100565.78;;;0.25;100.00
28683;BME280;15862;43.062;25.626;2023-02-18T05:25:07;100558.78;;;0.35;100.00
28683;BME280;15862;43.062;25.626;2023-02-18T05:27:32;100559.22;;;0.53;100.00
28683;BME280;15862;43.062;25.626;2023-02-18T05:29:58;100569.03;;;0.68;100.00
28683;BME280;15862;43.062;25.626;2023-02-18T05:32:24;100567.91;;;0.79;100.00
28683;BME280;15862;43.062;25.626;2023-02-18T05:34:49;100565.78;;;0.96;100.00
28683;BME280;15862;43.062;25.626;2023-02-18T05:37:15;100556.97;;;1.09;100.00
28683;BME280;15862;43.062;25.626;2023-02-18T05:39:43;100549.28;;;1.12;100.00
28683;BME280;15862;43.062;25.626;2023-02-18T05:42:08;100540.81;;;1.12;100.00
28683;BME280;15862;43.062;25.626;2023-02-18T05:44:33;100534.47;;;1.26;100.00
28683;BME280;15862;43.062;25.626;2023-02-18T05:47:07;100537.66;;;1.34;100.00
28683;BME280;15862;43.062;25.626;2023-02-18T05:49:33;100537.19;;;1.52;100.00
28683;BME280;15862;43.062;25.626;2023-02-18T05:51:59;100537.94;;;1.55;100.00
28683;BME280;15862;43.062;25.626;2023-02-18T05:54:25;100534.94;;;1.72;100.00
28683;BME280;15862;43.062;25.626;2023-02-18T05:56:51;100521.22;;;1.76;100.00
28683;BME280;15862;43.062;25.626;2023-02-18T05:59:17;100524.06;;;1.96;100.00
28683;BME280;15862;43.062;25.626;2023-02-18T06:01:43;100520.88;;;2.17;100.00
28683;BME280;15862;43.062;25.626;2023-02-18T06:04:09;100522.44;;;2.21;100.00
28683;BME280;15862;43.062;25.626;2023-02-18T06:06:35;100490.19;;;2.20;100.00
28683;BME280;15862;43.062;25.626;2023-02-18T06:09:00;100512.47;;;2.40;100.00
28683;BME280;15862;43.062;25.626;2023-02-18T06:11:26;100502.53;;;2.59;100.00
28683;BME280;15862;43.062;25.626;2023-02-18T06:13:51;100495.31;;;2.71;100.00
28683;BME280;15862;43.062;25.626;2023-02-18T06:16:17;100496.09;;;2.73;100.00
28683;BME280;15862;43.062;25.626;2023-02-18T06:18:42;100490.22;;;2.97;100.00
28683;BME280;15862;43.062;25.626;2023-02-18T06:21:08;100492.78;;;3.20;100.00
28683;BME280;15862;43.062;25.626;2023-02-18T06:23:33;100477.06;;;3.32;100.00
28683;BME280;15862;43.062;25.626;2023-02-18T06:25:58;100487.06;;;3.61;100.00
28683;BME280;15862;43.062;25.626;2023-02-18T06:28:24;100487.88;;;3.84;100.00
28683;BME280;15862;43.062;25.626;2023-02-18T06:30:49;100482.03;;;4.03;100.00
28683;BME280;15862;43.062;25.626;2023-02-18T06:33:15;100486.25;;;4.04;100.00
28683;BME280;15862;43.062;25.626;2023-02-18T06:35:40;100456.25;;;4.09;100.00
28683;BME280;15862;43.062;25.626;2023-02-18T06:38:06;100476.63;;;4.32;100.00
28683;BME280;15862;43.062;25.626;2023-02-18T06:40:31;100457.00;;;4.33;100.00
28683;BME280;15862;43.062;25.626;2023-02-18T06:42:57;100452.63;;;4.15;100.00
28683;BME280;15862;43.062;25.626;2023-02-18T06:45:22;100482.94;;;4.45;100.00
28683;BME280;15862;43.062;25.626;2023-02-18T06:47:48;100481.22;;;4.46;100.00
28683;BME280;15862;43.062;25.626;2023-02-18T06:50:13;100455.28;;;4.33;100.00
28683;BME280;15862;43.062;25.626;2023-02-18T06:52:39;100469.53;;;4.60;100.00
28683;BME280;15862;43.062;25.626;2023-02-18T06:55:05;100465.97;;;4.84;100.00
28683;BME280;15862;43.062;25.626;2023-02-18T06:57:31;100459.44;;;5.17;100.00
28683;BME280;15862;43.062;25.626;2023-02-18T06:59:56;100451.16;;;5.30;100.00
28683;BME280;15862;43.062;25.626;2023-02-18T07:02:22;100441.13;;;5.44;100.00
28683;BME280;15862;43.062;25.626;2023-02-18T07:04:47;100440.03;;;5.31;100.00
28683;BME280;15862;43.062;25.626;2023-02-18T07:07:13;100436.38;;;5.36;100.00
28683;BME280;15862;43.062;25.626;2023-02-18T07:09:38;100435.81;;;5.48;100.00
28683;BME280;15862;43.062;25.626;2023-02-18T07:12:04;100438.78;;;5.39;100.00
28683;BME280;15862;43.062;25.626;2023-02-18T07:14:29;100439.97;;;5.51;100.00
28683;BME280;15862;43.062;25.626;2023-02-18T07:16:55;100449.69;;;5.63;100.00
28683;BME280;15862;43.062;25.626;2023-02-18T07:19:20;100452.38;;;5.60;100.00
28683;BME280;15862;43.062;25.626;2023-02-18T07:21:46;100450.91;;;5.54;100.00
28683;BME280;15862;43.062;25.626;2023-02-18T07:24:11;100462.44;;;5.64;100.00
28683;BME280;15862;43.062;25.626;2023-02-18T07:26:36;100459.53;;;5.90;100.00
28683;BME280;15862;43.062;25.626;2023-02-18T07:29:02;100451.50;;;6.16;100.00
28683;BME280;15862;43.062;25.626;2023-02-18T07:31:27;100464.06;;;6.56;100.00
28683;BME280;15862;43.062;25.626;2023-02-18T07:33:53;100461.66;;;6.86;98.20
28683;BME280;15862;43.062;25.626;2023-02-18T07:36:18;100466.25;;;7.14;95.99
28683;BME280;15862;43.062;25.626;2023-02-18T07:38:44;100451.22;;;7.39;91.53
28683;BME280;15862;43.062;25.626;2023-02-18T07:41:16;100473.47;;;8.03;88.98
28683;BME280;15862;43.062;25.626;2023-02-18T07:43:43;100464.56;;;8.54;85.65
28683;BME280;15862;43.062;25.626;2023-02-18T07:46:08;100450.88;;;9.40;77.92
28683;BME280;15862;43.062;25.626;2023-02-18T07:48:34;100453.81;;;9.62;71.44
28683;BME280;15862;43.062;25.626;2023-02-18T07:51:00;100450.09;;;9.80;70.52
28683;BME280;15862;43.062;25.626;2023-02-18T07:53:25;100462.72;;;9.98;68.13
28683;BME280;15862;43.062;25.626;2023-02-18T07:55:50;100444.59;;;10.12;66.77
28683;BME280;15862;43.062;25.626;2023-02-18T07:58:25;100454.53;;;10.18;67.35
28683;BME280;15862;43.062;25.626;2023-02-18T08:00:51;100453.09;;;10.14;65.67
28683;BME280;15862;43.062;25.626;2023-02-18T08:03:20;100444.66;;;9.71;67.36
28683;BME280;15862;43.062;25.626;2023-02-18T08:05:47;100460.59;;;11.09;65.48
28683;BME280;15862;43.062;25.626;2023-02-18T08:08:15;100451.88;;;12.20;58.33
28683;BME280;15862;43.062;25.626;2023-02-18T08:10:41;100450.84;;;13.25;53.77
28683;BME280;15862;43.062;25.626;2023-02-18T08:13:07;100441.06;;;13.94;50.54
28683;BME280;15862;43.062;25.626;2023-02-18T08:15:32;100439.06;;;14.71;49.64
28683;BME280;15862;43.062;25.626;2023-02-18T08:17:58;100445.38;;;14.58;48.38
28683;BME280;15862;43.062;25.626;2023-02-18T08:20:23;100451.50;;;14.68;46.96
28683;BME280;15862;43.062;25.626;2023-02-18T08:22:49;100445.16;;;14.19;46.59
28683;BME280;15862;43.062;25.626;2023-02-18T08:25:14;100435.63;;;13.86;47.79
28683;BME280;15862;43.062;25.626;2023-02-18T08:27:40;100447.34;;;13.59;48.94
28683;BME280;15862;43.062;25.626;2023-02-18T08:30:06;100439.78;;;13.45;49.67
28683;BME280;15862;43.062;25.626;2023-02-18T08:32:31;100436.50;;;13.65;49.02
28683;BME280;15862;43.062;25.626;2023-02-18T08:34:57;100427.06;;;13.64;49.09
28683;BME280;15862;43.062;25.626;2023-02-18T08:37:22;100427.53;;;13.58;48.97
28683;BME280;15862;43.062;25.626;2023-02-18T08:39:48;100424.38;;;14.08;48.52
28683;BME280;15862;43.062;25.626;2023-02-18T08:42:14;100418.59;;;14.47;47.32
28683;BME280;15862;43.062;25.626;2023-02-18T08:44:39;100417.31;;;14.72;46.82
28683;BME280;15862;43.062;25.626;2023-02-18T08:47:05;100419.38;;;14.89;46.67
28683;BME280;15862;43.062;25.626;2023-02-18T08:49:30;100422.13;;;15.18;46.30
28683;BME280;15862;43.062;25.626;2023-02-18T08:51:56;100421.44;;;15.66;45.34
28683;BME280;15862;43.062;25.626;2023-02-18T08:54:22;100414.38;;;15.96;44.20
28683;BME280;15862;43.062;25.626;2023-02-18T08:56:49;100412.16;;;15.92;44.57
28683;BME280;15862;43.062;25.626;2023-02-18T08:59:14;100417.03;;;15.66;44.88
28683;BME280;15862;43.062;25.626;2023-02-18T09:01:39;100412.75;;;16.05;45.00
28683;BME280;15862;43.062;25.626;2023-02-18T09:04:05;100411.13;;;17.07;43.57
28683;BME280;15862;43.062;25.626;2023-02-18T09:06:30;100411.47;;;17.67;42.35
28683;BME280;15862;43.062;25.626;2023-02-18T09:08:56;100410.19;;;17.54;42.47
28683;BME280;15862;43.062;25.626;2023-02-18T09:11:21;100406.66;;;17.36;43.09
28683;BME280;15862;43.062;25.626;2023-02-18T09:13:46;100402.28;;;17.27;43.38
28683;BME280;15862;43.062;25.626;2023-02-18T09:16:15;100398.81;;;17.72;43.36
28683;BME280;15862;43.062;25.626;2023-02-18T09:18:42;100402.09;;;18.01;42.66
28683;BME280;15862;43.062;25.626;2023-02-18T09:21:10;100395.66;;;18.13;42.46
28683;BME280;15862;43.062;25.626;2023-02-18T09:23:36;100397.63;;;20.06;39.10
28683;BME280;15862;43.062;25.626;2023-02-18T09:26:07;100398.53;;;22.33;34.54
28683;BME280;15862;43.062;25.626;2023-02-18T09:28:34;100378.50;;;23.05;33.43
28683;BME280;15862;43.062;25.626;2023-02-18T09:31:06;100384.56;;;22.91;33.05
28683;BME280;15862;43.062;25.626;2023-02-18T09:33:34;100381.25;;;23.26;32.72
28683;BME280;15862;43.062;25.626;2023-02-18T09:36:00;100384.00;;;23.18;33.07
28683;BME280;15862;43.062;25.626;2023-02-18T09:38:26;100393.78;;;22.73;31.82
28683;BME280;15862;43.062;25.626;2023-02-18T09:40:52;100393.16;;;22.48;31.09
28683;BME280;15862;43.062;25.626;2023-02-18T09:43:47;100388.81;;;23.29;30.61
28683;BME280;15862;43.062;25.626;2023-02-18T09:46:21;100373.63;;;23.60;29.64
28683;BME280;15862;43.062;25.626;2023-02-18T09:48:47;100372.44;;;23.48;29.07
28683;BME280;15862;43.062;25.626;2023-02-18T09:51:14;100364.59;;;21.85;30.64
28683;BME280;15862;43.062;25.626;2023-02-18T09:53:41;100392.13;;;21.12;31.64
28683;BME280;15862;43.062;25.626;2023-02-18T09:56:11;100382.50;;;21.43;31.76
28683;BME280;15862;43.062;25.626;2023-02-18T09:58:37;100385.81;;;23.03;29.95
28683;BME280;15862;43.062;25.626;2023-02-18T10:01:31;100383.03;;;25.02;28.14
28683;BME280;15862;43.062;25.626;2023-02-18T10:04:03;100376.84;;;25.56;27.76
28683;BME280;15862;43.062;25.626;2023-02-18T10:06:32;100378.03;;;25.81;27.39
28683;BME280;15862;43.062;25.626;2023-02-18T10:09:02;100365.69;;;26.07;27.20
28683;BME280;15862;43.062;25.626;2023-02-18T10:11:35;100378.72;;;25.01;27.98
28683;BME280;15862;43.062;25.626;2023-02-18T10:14:02;100365.25;;;22.76;30.38
28683;BME280;15862;43.062;25.626;2023-02-18T10:16:29;100377.97;;;22.06;31.38
28683;BME280;15862;43.062;25.626;2023-02-18T10:18:56;100367.47;;;21.21;32.26
28683;BME280;15862;43.062;25.626;2023-02-18T10:21:25;100370.25;;;21.20;32.58
28683;BME280;15862;43.062;25.626;2023-02-18T10:24:09;100355.84;;;21.46;32.33
28683;BME280;15862;43.062;25.626;2023-02-18T10:26:40;100370.47;;;20.86;32.58
28683;BME280;15862;43.062;25.626;2023-02-18T10:29:17;100368.16;;;20.36;33.63
28683;BME280;15862;43.062;25.626;2023-02-18T10:31:51;100373.44;;;20.83;33.13
28683;BME280;15862;43.062;25.626;2023-02-18T10:34:52;100360.63;;;20.33;33.56
28683;BME280;15862;43.062;25.626;2023-02-18T10:46:26;100349.75;;;19.55;35.46
28683;BME280;15862;43.062;25.626;2023-02-18T10:50:49;100342.88;;;19.54;35.31
28683;BME280;15862;43.062;25.626;2023-02-18T10:53:27;100324.13;;;19.33;35.80
28683;BME280;15862;43.062;25.626;2023-02-18T10:55:55;100328.53;;;19.40;35.61
28683;BME280;15862;43.062;25.626;2023-02-18T11:00:51;100325.09;;;19.81;35.57
28683;BME280;15862;43.062;25.626;2023-02-18T11:05:44;100321.25;;;19.60;35.31
28683;BME280;15862;43.062;25.626;2023-02-18T11:08:16;100321.72;;;19.47;35.19
28683;BME280;15862;43.062;25.626;2023-02-18T11:10:44;100314.78;;;19.80;34.73
28683;BME280;15862;43.062;25.626;2023-02-18T11:13:12;100311.41;;;19.54;34.43
28683;BME280;15862;43.062;25.626;2023-02-18T11:15:54;100309.53;;;19.30;35.01
28683;BME280;15862;43.062;25.626;2023-02-18T11:21:05;100287.25;;;19.34;35.14
28683;BME280;15862;43.062;25.626;2023-02-18T11:23:31;100294.56;;;19.72;34.79
28683;BME280;15862;43.062;25.626;2023-02-18T11:26:11;100285.72;;;19.65;34.01
28683;BME280;15862;43.062;25.626;2023-02-18T11:28:43;100275.91;;;19.18;34.37
28683;BME280;15862;43.062;25.626;2023-02-18T11:31:15;100279.53;;;19.25;34.03
28683;BME280;15862;43.062;25.626;2023-02-18T11:33:57;100271.66;;;19.25;34.39
28683;BME280;15862;43.062;25.626;2023-02-18T11:36:28;100266.44;;;19.25;34.52
28683;BME280;15862;43.062;25.626;2023-02-18T11:38:56;100265.31;;;19.35;34.29
28683;BME280;15862;43.062;25.626;2023-02-18T11:41:43;100258.94;;;18.97;34.37
28683;BME280;15862;43.062;25.626;2023-02-18T11:44:24;100276.56;;;19.20;34.46
28683;BME280;15862;43.062;25.626;2023-02-18T11:47:03;100283.59;;;19.69;34.13
28683;BME280;15862;43.062;25.626;2023-02-18T11:49:30;100272.81;;;19.80;34.10
28683;BME280;15862;43.062;25.626;2023-02-18T11:52:33;100282.84;;;20.00;34.01
28683;BME280;15862;43.062;25.626;2023-02-18T11:57:54;100272.94;;;19.78;35.00
28683;BME280;15862;43.062;25.626;2023-02-18T12:02:53;100267.75;;;18.96;35.81
28683;BME280;15862;43.062;25.626;2023-02-18T12:05:23;100279.00;;;19.14;36.04
28683;BME280;15862;43.062;25.626;2023-02-18T12:07:50;100248.53;;;18.87;36.57
28683;BME280;15862;43.062;25.626;2023-02-18T12:10:42;100284.91;;;19.16;36.58
28683;BME280;15862;43.062;25.626;2023-02-18T12:13:36;100278.25;;;19.37;36.41
28683;BME280;15862;43.062;25.626;2023-02-18T12:16:22;100290.53;;;19.36;36.63
28683;BME280;15862;43.062;25.626;2023-02-18T12:19:09;100284.56;;;19.18;37.30
28683;BME280;15862;43.062;25.626;2023-02-18T12:21:57;100276.72;;;19.18;37.53
28683;BME280;15862;43.062;25.626;2023-02-18T12:27:11;100244.13;;;19.13;38.23
28683;BME280;15862;43.062;25.626;2023-02-18T12:32:29;100264.81;;;19.32;38.55
28683;BME280;15862;43.062;25.626;2023-02-18T12:35:21;100264.34;;;19.36;38.31
28683;BME280;15862;43.062;25.626;2023-02-18T12:48:37;100232.72;;;21.50;37.53
28683;BME280;15862;43.062;25.626;2023-02-18T12:54:01;100246.06;;;22.01;36.51
28683;BME280;15862;43.062;25.626;2023-02-18T13:02:43;100233.97;;;19.83;40.54
28683;BME280;15862;43.062;25.626;2023-02-18T13:05:37;100236.47;;;19.35;41.00
28683;BME280;15862;43.062;25.626;2023-02-18T13:13:52;100229.44;;;19.28;41.73
28683;BME280;15862;43.062;25.626;2023-02-18T13:16:20;100216.97;;;19.22;42.03
28683;BME280;15862;43.062;25.626;2023-02-18T13:19:16;100223.91;;;19.06;42.70
28683;BME280;15862;43.062;25.626;2023-02-18T13:21:43;100216.06;;;19.06;43.31
28683;BME280;15862;43.062;25.626;2023-02-18T13:24:14;100205.13;;;18.77;44.30
28683;BME280;15862;43.062;25.626;2023-02-18T13:26:44;100216.19;;;18.96;43.86
28683;BME280;15862;43.062;25.626;2023-02-18T13:32:40;100231.41;;;18.93;45.34
28683;BME280;15862;43.062;25.626;2023-02-18T13:40:59;100224.38;;;19.01;44.98
28683;BME280;15862;43.062;25.626;2023-02-18T13:43:34;100222.31;;;19.13;44.48
28683;BME280;15862;43.062;25.626;2023-02-18T13:51:10;100217.75;;;19.15;44.63
28683;BME280;15862;43.062;25.626;2023-02-18T13:53:39;100210.16;;;18.96;44.96
28683;BME280;15862;43.062;25.626;2023-02-18T13:56:10;100209.88;;;18.73;45.39
28683;BME280;15862;43.062;25.626;2023-02-18T13:58:52;100202.69;;;18.75;45.55
28683;BME280;15862;43.062;25.626;2023-02-18T14:01:22;100202.38;;;18.78;45.30
28683;BME280;15862;43.062;25.626;2023-02-18T14:03:51;100210.75;;;18.90;45.09
28683;BME280;15862;43.062;25.626;2023-02-18T14:08:46;100197.34;;;18.59;45.51
28683;BME280;15862;43.062;25.626;2023-02-18T14:13:38;100194.41;;;18.54;45.74
28683;BME280;15862;43.062;25.626;2023-02-18T14:16:05;100183.84;;;18.72;45.94
28683;BME280;15862;43.062;25.626;2023-02-18T14:28:43;100199.84;;;18.36;46.79
28683;BME280;15862;43.062;25.626;2023-02-18T14:50:22;100191.53;;;17.97;48.34
28683;BME280;15862;43.062;25.626;2023-02-18T14:52:56;100194.25;;;17.88;48.90
28683;BME280;15862;43.062;25.626;2023-02-18T14:55:26;100199.25;;;17.81;48.67
28683;BME280;15862;43.062;25.626;2023-02-18T14:58:07;100202.19;;;17.78;48.93
28683;BME280;15862;43.062;25.626;2023-02-18T15:00:42;100202.72;;;17.64;48.96
28683;BME280;15862;43.062;25.626;2023-02-18T15:03:13;100199.41;;;17.63;48.91
28683;BME280;15862;43.062;25.626;2023-02-18T15:05:40;100205.53;;;17.54;48.89
28683;BME280;15862;43.062;25.626;2023-02-18T15:13:08;100192.31;;;17.11;49.84
28683;BME280;15862;43.062;25.626;2023-02-18T15:15:37;100194.47;;;16.98;50.26
28683;BME280;15862;43.062;25.626;2023-02-18T15:18:03;100194.66;;;16.87;50.46
28683;BME280;15862;43.062;25.626;2023-02-18T15:20:33;100193.59;;;16.80;51.10